createdAt,value
2017-08-22T00:00:55.080Z,101005
2017-08-22T00:01:54.998Z,101002
2017-08-22T00:02:56.674Z,101000
2017-08-22T00:03:56.924Z,101002
2017-08-22T00:04:55.177Z,100998
2017-08-22T00:05:55.319Z,101000
2017-08-22T00:06:55.237Z,100991
2017-08-22T00:07:56.233Z,100995
2017-08-22T00:08:55.442Z,100989
2017-08-22T00:09:55.692Z,100990
2017-08-22T00:10:56.573Z,100991
2017-08-22T00:11:56.650Z,100988
2017-08-22T00:12:56.541Z,100990
2017-08-22T00:13:55.747Z,100988
2017-08-22T00:14:56.647Z,100985
2017-08-22T00:15:55.989Z,100986
2017-08-22T00:16:55.893Z,100977
2017-08-22T00:17:56.965Z,100988
2017-08-22T00:18:56.877Z,100986
2017-08-22T00:19:57.028Z,100988
2017-08-22T00:20:57.721Z,100987
2017-08-22T00:21:57.170Z,100987
2017-08-22T00:22:56.191Z,100984
2017-08-22T00:23:57.810Z,100987
2017-08-22T00:24:57.889Z,100982
2017-08-22T00:25:57.292Z,100983
2017-08-22T00:26:56.418Z,100977
2017-08-22T00:27:56.539Z,100982
2017-08-22T00:28:58.249Z,100980
2017-08-22T00:29:57.608Z,100984
2017-08-22T00:30:58.217Z,100985
2017-08-22T00:31:56.586Z,100979
2017-08-22T00:32:56.714Z,100978
2017-08-22T00:33:58.631Z,100975
2017-08-22T00:34:56.670Z,100976
2017-08-22T00:35:56.809Z,100975
2017-08-22T00:36:57.704Z,100979
2017-08-22T00:37:56.910Z,100968
2017-08-22T00:38:56.822Z,100966
2017-08-22T00:39:58.030Z,100976
2017-08-22T00:40:58.617Z,100974
2017-08-22T00:41:58.019Z,100977
2017-08-22T00:42:57.109Z,100977
2017-08-22T00:43:58.814Z,100979
2017-08-22T00:44:59.002Z,100982
2017-08-22T00:45:57.458Z,100983
2017-08-22T00:46:57.441Z,100978
2017-08-22T00:47:57.416Z,100978
2017-08-22T00:48:57.527Z,100978
2017-08-22T00:49:59.316Z,100977
2017-08-22T00:50:59.372Z,100977
2017-08-22T00:51:58.789Z,100974
2017-08-22T00:52:59.414Z,100977
2017-08-22T00:53:57.814Z,100978
2017-08-22T00:54:57.986Z,100981
2017-08-22T00:55:58.034Z,100989
2017-08-22T00:56:57.949Z,100987
2017-08-22T00:57:59.282Z,100989
2017-08-22T00:58:58.129Z,100989
2017-08-22T00:59:58.238Z,100985
2017-08-22T01:01:00.016Z,100985
2017-08-22T01:01:58.248Z,100986
2017-08-22T01:02:58.341Z,100983
2017-08-22T01:03:58.734Z,100983
2017-08-22T01:04:58.464Z,100977
2017-08-22T01:05:58.573Z,100979
2017-08-22T01:06:59.540Z,100974
2017-08-22T01:07:58.689Z,100973
2017-08-22T01:08:58.662Z,100973
2017-08-22T01:09:58.970Z,100972
2017-08-22T01:10:59.704Z,100972
2017-08-22T01:12:00.489Z,100966
2017-08-22T01:12:59.774Z,100966
2017-08-22T01:14:00.657Z,100973
2017-08-22T01:15:00.051Z,100975
2017-08-22T01:16:00.391Z,100977
2017-08-22T01:16:59.128Z,100975
2017-08-22T01:17:59.098Z,100979
2017-08-22T01:19:00.927Z,100980
2017-08-22T01:20:00.770Z,100978
2017-08-22T01:21:00.950Z,100983
2017-08-22T01:22:00.547Z,100986
2017-08-22T01:23:01.085Z,100981
2017-08-22T01:23:59.473Z,100993
2017-08-22T01:25:00.528Z,100992
2017-08-22T01:26:00.392Z,100992
2017-08-22T01:27:01.272Z,100988
2017-08-22T01:28:00.784Z,100997
2017-08-22T01:29:00.625Z,100996
2017-08-22T01:30:00.656Z,100995
2017-08-22T01:30:59.604Z,100999
2017-08-22T01:32:00.611Z,101000
2017-08-22T01:33:01.325Z,100996
2017-08-22T01:34:01.576Z,100997
2017-08-22T01:35:01.482Z,101000
2017-08-22T01:35:59.915Z,100997
2017-08-22T01:37:01.637Z,100994
2017-08-22T01:37:59.968Z,100989
2017-08-22T01:39:00.038Z,100990
2017-08-22T01:40:00.224Z,100988
2017-08-22T01:41:01.694Z,100991
2017-08-22T01:42:00.140Z,100989
2017-08-22T01:43:00.154Z,100990
2017-08-22T01:44:02.042Z,100986
2017-08-22T01:45:02.098Z,100989
2017-08-22T01:46:02.349Z,100985
2017-08-22T01:47:02.112Z,100986
2017-08-22T01:48:00.701Z,100983
2017-08-22T01:49:00.734Z,100983
2017-08-22T01:50:00.807Z,100979
2017-08-22T01:51:00.788Z,100977
2017-08-22T01:52:03.532Z,100976
2017-08-22T01:53:01.050Z,100979
2017-08-22T01:54:01.049Z,100973
2017-08-22T01:55:02.730Z,100972
2017-08-22T01:56:01.624Z,100970
2017-08-22T01:57:02.883Z,100969
2017-08-22T01:58:01.253Z,100964
2017-08-22T01:59:01.190Z,100964
2017-08-22T02:00:01.237Z,100967
2017-08-22T02:01:03.011Z,100959
2017-08-22T02:02:01.366Z,100966
2017-08-22T02:03:02.912Z,100964
2017-08-22T02:04:03.500Z,100960
2017-08-22T02:05:01.689Z,100963
2017-08-22T02:06:03.416Z,100959
2017-08-22T02:07:03.383Z,100961
2017-08-22T02:08:01.887Z,100963
2017-08-22T02:09:02.522Z,100960
2017-08-22T02:10:03.818Z,100959
2017-08-22T02:11:02.715Z,100960
2017-08-22T02:12:03.709Z,100963
2017-08-22T02:13:02.120Z,100960
2017-08-22T02:14:02.200Z,100959
2017-08-22T02:15:03.059Z,100966
2017-08-22T02:16:04.706Z,100965
2017-08-22T02:17:03.945Z,100971
2017-08-22T02:18:03.442Z,100962
2017-08-22T02:19:05.020Z,100966
2017-08-22T02:20:02.447Z,100965
2017-08-22T02:21:02.368Z,100968
2017-08-22T02:22:03.685Z,100972
2017-08-22T02:23:02.545Z,100976
2017-08-22T02:24:04.251Z,100977
2017-08-22T02:25:03.329Z,100979
2017-08-22T02:26:03.882Z,100978
2017-08-22T02:27:02.954Z,100978
2017-08-22T02:28:03.098Z,100977
2017-08-22T02:29:02.928Z,100977
2017-08-22T02:30:05.185Z,100979
2017-08-22T02:31:03.913Z,100979
2017-08-22T02:32:03.092Z,100978
2017-08-22T02:33:04.013Z,100977
2017-08-22T02:34:05.112Z,100970
2017-08-22T02:35:03.206Z,100965
2017-08-22T02:36:05.600Z,100975
2017-08-22T02:37:04.043Z,100975
2017-08-22T02:38:04.241Z,100974
2017-08-22T02:39:03.481Z,100968
2017-08-22T02:40:03.824Z,100971
2017-08-22T02:41:05.122Z,100972
2017-08-22T02:42:04.653Z,100962
2017-08-22T02:43:05.304Z,100964
2017-08-22T02:44:03.794Z,100968
2017-08-22T02:45:03.834Z,100962
2017-08-22T02:46:05.699Z,100961
2017-08-22T02:47:03.849Z,100962
2017-08-22T02:48:05.646Z,100961
2017-08-22T02:49:04.957Z,100962
2017-08-22T02:50:03.932Z,100966
2017-08-22T02:51:05.623Z,100964
2017-08-22T02:52:04.239Z,100961
2017-08-22T02:53:04.176Z,100965
2017-08-22T02:54:05.910Z,100966
2017-08-22T02:55:04.172Z,100966
2017-08-22T02:56:04.296Z,100968
2017-08-22T02:57:04.392Z,100967
2017-08-22T02:58:06.313Z,100964
2017-08-22T02:59:06.096Z,100966
2017-08-22T03:00:04.425Z,100964
2017-08-22T03:01:06.517Z,100966
2017-08-22T03:02:05.519Z,100965
2017-08-22T03:03:06.377Z,100965
2017-08-22T03:04:06.441Z,100965
2017-08-22T03:05:05.552Z,100965
2017-08-22T03:06:04.591Z,100963
2017-08-22T03:07:06.392Z,100961
2017-08-22T03:08:06.583Z,100959
2017-08-22T03:09:06.512Z,100957
2017-08-22T03:10:04.910Z,100956
2017-08-22T03:11:05.063Z,100956
2017-08-22T03:12:06.072Z,100956
2017-08-22T03:13:05.056Z,100960
2017-08-22T03:14:05.178Z,100961
2017-08-22T03:15:06.973Z,100960
2017-08-22T03:16:05.232Z,100959
2017-08-22T03:17:07.071Z,100956
2017-08-22T03:18:05.555Z,100954
2017-08-22T03:19:05.527Z,100951
2017-08-22T03:20:07.409Z,100956
2017-08-22T03:21:07.409Z,100950
2017-08-22T03:22:05.663Z,100952
2017-08-22T03:23:05.789Z,100952
2017-08-22T03:24:06.827Z,100952
2017-08-22T03:25:06.774Z,100955
2017-08-22T03:26:05.994Z,100957
2017-08-22T03:27:07.746Z,100957
2017-08-22T03:28:06.950Z,100960
2017-08-22T03:29:06.072Z,100957
2017-08-22T03:30:06.206Z,100958
2017-08-22T03:31:07.952Z,100953
2017-08-22T03:32:07.204Z,100952
2017-08-22T03:33:08.127Z,100957
2017-08-22T03:34:08.208Z,100954
2017-08-22T03:35:06.439Z,100951
2017-08-22T03:36:06.450Z,100953
2017-08-22T03:37:06.647Z,100957
2017-08-22T03:38:08.249Z,100957
2017-08-22T03:39:07.651Z,100958
2017-08-22T03:40:07.594Z,100959
2017-08-22T03:41:06.742Z,100960
2017-08-22T03:42:07.710Z,100965
2017-08-22T03:43:06.822Z,100961
2017-08-22T03:44:08.690Z,100958
2017-08-22T03:45:08.743Z,100960
2017-08-22T03:46:07.113Z,100962
2017-08-22T03:47:08.017Z,100964
2017-08-22T03:48:08.926Z,100959
2017-08-22T03:49:07.228Z,100962
2017-08-22T03:50:07.419Z,100963
2017-08-22T03:51:08.356Z,100965
2017-08-22T03:52:08.497Z,100963
2017-08-22T03:53:07.560Z,100958
2017-08-22T03:54:09.283Z,100962
2017-08-22T03:55:09.209Z,100964
2017-08-22T03:56:08.683Z,100965
2017-08-22T03:57:08.716Z,100963
2017-08-22T03:58:09.387Z,100966
2017-08-22T03:59:09.467Z,100960
2017-08-22T04:00:07.903Z,100960
2017-08-22T04:01:08.866Z,100960
2017-08-22T04:02:09.713Z,100959
2017-08-22T04:03:08.098Z,100957
2017-08-22T04:04:09.862Z,100958
2017-08-22T04:05:08.177Z,100957
2017-08-22T04:06:08.235Z,100956
2017-08-22T04:07:09.238Z,100955
2017-08-22T04:08:09.270Z,100958
2017-08-22T04:09:09.169Z,100961
2017-08-22T04:10:08.234Z,100958
2017-08-22T04:11:09.315Z,100961
2017-08-22T04:12:09.385Z,100951
2017-08-22T04:13:09.417Z,100958
2017-08-22T04:14:10.075Z,100961
2017-08-22T04:15:08.552Z,100955
2017-08-22T04:16:08.489Z,100959
2017-08-22T04:17:08.593Z,100954
2017-08-22T04:18:08.573Z,100954
2017-08-22T04:19:10.347Z,100954
2017-08-22T04:20:09.715Z,100952
2017-08-22T04:21:09.723Z,100951
2017-08-22T04:22:08.894Z,100948
2017-08-22T04:23:08.941Z,100947
2017-08-22T04:24:09.557Z,100948
2017-08-22T04:25:09.061Z,100941
2017-08-22T04:26:09.094Z,100949
2017-08-22T04:27:09.042Z,100949
2017-08-22T04:28:10.021Z,100948
2017-08-22T04:29:10.188Z,100949
2017-08-22T04:30:09.268Z,100945
2017-08-22T04:31:09.282Z,100946
2017-08-22T04:32:11.010Z,100947
2017-08-22T04:33:10.274Z,100944
2017-08-22T04:34:09.311Z,100945
2017-08-22T04:35:10.470Z,100945
2017-08-22T04:36:09.438Z,100941
2017-08-22T04:37:09.598Z,100946
2017-08-22T04:38:11.198Z,100947
2017-08-22T04:39:11.285Z,100949
2017-08-22T04:40:09.680Z,100956
2017-08-22T04:41:09.812Z,100951
2017-08-22T04:42:10.723Z,100953
2017-08-22T04:43:10.913Z,100951
2017-08-22T04:44:10.853Z,100953
2017-08-22T04:45:10.053Z,100950
2017-08-22T04:46:11.747Z,100955
2017-08-22T04:47:09.972Z,100957
2017-08-22T04:48:10.009Z,100958
2017-08-22T04:49:10.028Z,100952
2017-08-22T04:50:10.835Z,100953
2017-08-22T04:51:10.125Z,100950
2017-08-22T04:52:11.132Z,100955
2017-08-22T04:53:11.136Z,100951
2017-08-22T04:54:10.264Z,100948
2017-08-22T04:55:11.283Z,100948
2017-08-22T04:56:12.053Z,100948
2017-08-22T04:57:11.416Z,100950
2017-08-22T04:58:10.448Z,100950
2017-08-22T04:59:10.589Z,100945
2017-08-22T05:00:10.608Z,100950
2017-08-22T05:01:10.609Z,100950
2017-08-22T05:02:12.413Z,100949
2017-08-22T05:03:12.521Z,100952
2017-08-22T05:04:12.561Z,100948
2017-08-22T05:05:10.865Z,100948
2017-08-22T05:06:11.011Z,100948
2017-08-22T05:07:10.978Z,100946
2017-08-22T05:08:12.145Z,100951
2017-08-22T05:09:12.157Z,100951
2017-08-22T05:10:11.207Z,100955
2017-08-22T05:11:12.898Z,100953
2017-08-22T05:12:11.256Z,100956
2017-08-22T05:13:11.250Z,100954
2017-08-22T05:14:11.327Z,100953
2017-08-22T05:15:11.365Z,100953
2017-08-22T05:16:12.359Z,100952
2017-08-22T05:17:13.175Z,100957
2017-08-22T05:18:12.448Z,100950
2017-08-22T05:19:11.541Z,100956
2017-08-22T05:21:12.554Z,100958
2017-08-22T05:22:11.590Z,100959
2017-08-22T05:23:11.714Z,100954
2017-08-22T05:24:13.464Z,100962
2017-08-22T05:25:13.438Z,100962
2017-08-22T05:26:13.579Z,100963
2017-08-22T05:27:11.886Z,100966
2017-08-22T05:28:12.045Z,100966
2017-08-22T05:29:11.959Z,100967
2017-08-22T05:30:11.965Z,100965
2017-08-22T05:31:12.127Z,100965
2017-08-22T05:32:12.978Z,100965
2017-08-22T05:33:14.599Z,100967
2017-08-22T05:34:13.217Z,100965
2017-08-22T05:35:12.333Z,100967
2017-08-22T05:36:12.402Z,100963
2017-08-22T05:37:14.111Z,100971
2017-08-22T05:38:12.504Z,100974
2017-08-22T05:39:12.654Z,100974
2017-08-22T05:40:12.634Z,100975
2017-08-22T05:41:13.713Z,100969
2017-08-22T05:42:14.347Z,100972
2017-08-22T05:43:12.697Z,100971
2017-08-22T05:44:12.831Z,100967
2017-08-22T05:45:13.706Z,100971
2017-08-22T05:46:14.493Z,100971
2017-08-22T05:47:14.519Z,100962
2017-08-22T05:48:13.942Z,100965
2017-08-22T05:49:12.987Z,100968
2017-08-22T05:50:12.922Z,100964
2017-08-22T05:51:13.295Z,100966
2017-08-22T05:52:13.971Z,100967
2017-08-22T05:53:14.762Z,100972
2017-08-22T05:54:14.213Z,100968
2017-08-22T05:55:14.959Z,100970
2017-08-22T05:56:13.226Z,100971
2017-08-22T05:57:14.104Z,100966
2017-08-22T05:58:13.401Z,100967
2017-08-22T05:59:15.029Z,100968
2017-08-22T06:00:14.365Z,100967
2017-08-22T06:01:14.959Z,100965
2017-08-22T06:02:15.175Z,100972
2017-08-22T06:03:14.669Z,100966
2017-08-22T06:04:15.982Z,100971
2017-08-22T06:05:13.621Z,100967
2017-08-22T06:06:15.474Z,100964
2017-08-22T06:07:14.863Z,100963
2017-08-22T06:08:14.253Z,100965
2017-08-22T06:09:13.875Z,100963
2017-08-22T06:10:14.918Z,100967
2017-08-22T06:11:13.953Z,100963
2017-08-22T06:12:13.987Z,100966
2017-08-22T06:13:15.092Z,100963
2017-08-22T06:14:15.189Z,100960
2017-08-22T06:15:15.231Z,100964
2017-08-22T06:16:14.254Z,100958
2017-08-22T06:17:15.241Z,100963
2017-08-22T06:18:16.154Z,100966
2017-08-22T06:19:16.051Z,100962
2017-08-22T06:20:15.629Z,100958
2017-08-22T06:21:15.068Z,100960
2017-08-22T06:22:14.541Z,100962
2017-08-22T06:23:16.402Z,100961
2017-08-22T06:24:14.662Z,100957
2017-08-22T06:25:14.659Z,100959
2017-08-22T06:26:17.112Z,100958
2017-08-22T06:27:16.367Z,100958
2017-08-22T06:28:14.911Z,100960
2017-08-22T06:29:16.682Z,100958
2017-08-22T06:30:16.010Z,100957
2017-08-22T06:31:15.013Z,100952
2017-08-22T06:32:16.309Z,100957
2017-08-22T06:33:15.125Z,100955
2017-08-22T06:34:15.147Z,100960
2017-08-22T06:35:16.073Z,100959
2017-08-22T06:36:16.934Z,100956
2017-08-22T06:37:15.361Z,100954
2017-08-22T06:38:16.227Z,100952
2017-08-22T06:39:15.410Z,100956
2017-08-22T06:40:15.438Z,100957
2017-08-22T06:41:15.439Z,100955
2017-08-22T06:42:16.323Z,100952
2017-08-22T06:43:15.559Z,100945
2017-08-22T06:44:16.700Z,100950
2017-08-22T06:45:15.624Z,100950
2017-08-22T06:46:15.797Z,100950
2017-08-22T06:47:16.460Z,100952
2017-08-22T06:48:15.877Z,100948
2017-08-22T06:49:16.025Z,100950
2017-08-22T06:50:18.158Z,100956
2017-08-22T06:51:15.905Z,100948
2017-08-22T06:52:17.663Z,100951
2017-08-22T06:53:16.127Z,100947
2017-08-22T06:54:17.729Z,100951
2017-08-22T06:55:16.216Z,100957
2017-08-22T06:56:17.935Z,100955
2017-08-22T06:57:16.267Z,100958
2017-08-22T06:58:16.333Z,100956
2017-08-22T06:59:18.668Z,100954
2017-08-22T07:00:16.331Z,100952
2017-08-22T07:01:16.523Z,100954
2017-08-22T07:02:16.493Z,100951
2017-08-22T07:03:17.358Z,100951
2017-08-22T07:04:16.984Z,100950
2017-08-22T07:05:16.619Z,100952
2017-08-22T07:06:16.620Z,100959
2017-08-22T07:07:16.800Z,100958
2017-08-22T07:08:16.837Z,100960
2017-08-22T07:09:18.514Z,100966
2017-08-22T07:10:18.544Z,100961
2017-08-22T07:11:17.908Z,100965
2017-08-22T07:12:18.657Z,100964
2017-08-22T07:13:18.582Z,100967
2017-08-22T07:14:17.893Z,100972
2017-08-22T07:15:18.161Z,100971
2017-08-22T07:16:19.041Z,100974
2017-08-22T07:17:17.969Z,100976
2017-08-22T07:18:17.238Z,100981
2017-08-22T07:19:17.230Z,100977
2017-08-22T07:20:17.303Z,100978
2017-08-22T07:21:19.040Z,100979
2017-08-22T07:22:18.911Z,100977
2017-08-22T07:23:17.527Z,100978
2017-08-22T07:24:17.614Z,100977
2017-08-22T07:25:18.369Z,100977
2017-08-22T07:26:17.824Z,100978
2017-08-22T07:27:17.806Z,100979
2017-08-22T07:28:18.809Z,100979
2017-08-22T07:29:18.018Z,100979
2017-08-22T07:30:19.297Z,100975
2017-08-22T07:31:19.720Z,100977
2017-08-22T07:32:18.082Z,100980
2017-08-22T07:33:20.609Z,100978
2017-08-22T07:34:20.438Z,100974
2017-08-22T07:35:18.325Z,100978
2017-08-22T07:36:18.252Z,100977
2017-08-22T07:37:19.930Z,100983
2017-08-22T07:38:18.415Z,100981
2017-08-22T07:39:18.555Z,100976
2017-08-22T07:40:20.238Z,100973
2017-08-22T07:41:19.299Z,100979
2017-08-22T07:42:18.603Z,100976
2017-08-22T07:43:20.042Z,100977
2017-08-22T07:44:18.757Z,100974
2017-08-22T07:45:19.771Z,100973
2017-08-22T07:46:18.793Z,100970
2017-08-22T07:47:18.736Z,100970
2017-08-22T07:48:18.827Z,100972
2017-08-22T07:49:18.877Z,100973
2017-08-22T07:50:19.914Z,100970
2017-08-22T07:51:20.031Z,100971
2017-08-22T07:52:20.724Z,100972
2017-08-22T07:53:19.082Z,100972
2017-08-22T07:54:19.278Z,100970
2017-08-22T07:55:19.342Z,100972
2017-08-22T07:56:19.400Z,100965
2017-08-22T07:57:20.350Z,100971
2017-08-22T07:58:19.444Z,100966
2017-08-22T07:59:19.558Z,100967
2017-08-22T08:00:19.536Z,100972
2017-08-22T08:01:19.558Z,100971
2017-08-22T08:02:21.243Z,100970
2017-08-22T08:03:20.628Z,100970
2017-08-22T08:04:19.704Z,100973
2017-08-22T08:05:19.863Z,100974
2017-08-22T08:06:21.495Z,100972
2017-08-22T08:07:21.487Z,100971
2017-08-22T08:08:19.884Z,100967
2017-08-22T08:09:20.478Z,100970
2017-08-22T08:10:20.431Z,100974
2017-08-22T08:11:21.063Z,100969
2017-08-22T08:12:20.269Z,100968
2017-08-22T08:13:20.305Z,100965
2017-08-22T08:14:22.167Z,100967
2017-08-22T08:15:20.382Z,100965
2017-08-22T08:16:22.138Z,100960
2017-08-22T08:17:21.588Z,100962
2017-08-22T08:18:21.191Z,100961
2017-08-22T08:19:22.310Z,100960
2017-08-22T08:20:21.791Z,100960
2017-08-22T08:21:22.446Z,100960
2017-08-22T08:22:20.806Z,100960
2017-08-22T08:23:22.654Z,100959
2017-08-22T08:24:23.162Z,100960
2017-08-22T08:25:22.782Z,100955
2017-08-22T08:26:22.125Z,100959
2017-08-22T08:27:21.069Z,100952
2017-08-22T08:28:21.142Z,100960
2017-08-22T08:29:22.046Z,100960
2017-08-22T08:30:22.847Z,100958
2017-08-22T08:31:21.268Z,100956
2017-08-22T08:32:22.895Z,100953
2017-08-22T08:33:23.094Z,100956
2017-08-22T08:34:23.030Z,100956
2017-08-22T08:35:21.448Z,100958
2017-08-22T08:36:22.098Z,100958
2017-08-22T08:37:21.568Z,100953
2017-08-22T08:38:23.832Z,100954
2017-08-22T08:39:23.142Z,100954
2017-08-22T08:40:23.147Z,100955
2017-08-22T08:41:21.601Z,100957
2017-08-22T08:42:21.746Z,100954
2017-08-22T08:43:24.485Z,100950
2017-08-22T08:44:22.733Z,100957
2017-08-22T08:45:23.283Z,100955
2017-08-22T08:46:21.981Z,100956
2017-08-22T08:47:22.947Z,100954
2017-08-22T08:48:22.056Z,100950
2017-08-22T08:49:22.043Z,100953
2017-08-22T08:50:23.737Z,100948
2017-08-22T08:51:23.740Z,100953
2017-08-22T08:52:23.530Z,100954
2017-08-22T08:53:22.149Z,100949
2017-08-22T08:54:22.166Z,100951
2017-08-22T08:55:22.373Z,100951
2017-08-22T08:56:23.258Z,100957
2017-08-22T08:57:22.412Z,100953
2017-08-22T08:58:24.155Z,100957
2017-08-22T08:59:22.424Z,100955
2017-08-22T09:00:22.512Z,100954
2017-08-22T09:01:23.674Z,100957
2017-08-22T09:02:24.312Z,100957
2017-08-22T09:03:24.506Z,100955
2017-08-22T09:04:22.836Z,100953
2017-08-22T09:05:24.537Z,100960
2017-08-22T09:06:23.794Z,100965
2017-08-22T09:07:23.847Z,100960
2017-08-22T09:08:23.031Z,100962
2017-08-22T09:09:23.170Z,100961
2017-08-22T09:10:23.180Z,100957
2017-08-22T09:11:24.270Z,100951
2017-08-22T09:12:24.930Z,100948
2017-08-22T09:13:23.280Z,100946
2017-08-22T09:14:25.828Z,100950
2017-08-22T09:15:25.072Z,100946
2017-08-22T09:16:25.739Z,100951
2017-08-22T09:17:23.556Z,100947
2017-08-22T09:18:23.650Z,100951
2017-08-22T09:19:25.128Z,100948
2017-08-22T09:20:23.847Z,100948
2017-08-22T09:21:25.530Z,100952
2017-08-22T09:22:23.912Z,100943
2017-08-22T09:23:24.026Z,100940
2017-08-22T09:24:25.733Z,100941
2017-08-22T09:25:24.955Z,100941
2017-08-22T09:26:24.062Z,100943
2017-08-22T09:27:25.087Z,100940
2017-08-22T09:28:24.119Z,100945
2017-08-22T09:29:24.771Z,100943
2017-08-22T09:30:25.942Z,100942
2017-08-22T09:31:25.376Z,100944
2017-08-22T09:32:24.962Z,100943
2017-08-22T09:33:25.936Z,100937
2017-08-22T09:34:24.464Z,100935
2017-08-22T09:35:25.874Z,100935
2017-08-22T09:36:25.094Z,100934
2017-08-22T09:37:27.407Z,100934
2017-08-22T09:38:25.172Z,100933
2017-08-22T09:39:25.383Z,100933
2017-08-22T09:40:26.867Z,100927
2017-08-22T09:41:24.750Z,100928
2017-08-22T09:42:24.710Z,100928
2017-08-22T09:43:24.724Z,100926
2017-08-22T09:44:26.509Z,100926
2017-08-22T09:45:24.995Z,100923
2017-08-22T09:46:26.251Z,100924
2017-08-22T09:47:26.168Z,100924
2017-08-22T09:48:26.863Z,100924
2017-08-22T09:49:25.156Z,100926
2017-08-22T09:50:27.042Z,100921
2017-08-22T09:51:26.901Z,100921
2017-08-22T09:52:25.420Z,100919
2017-08-22T09:53:25.962Z,100918
2017-08-22T09:54:26.344Z,100918
2017-08-22T09:55:25.521Z,100924
2017-08-22T09:56:26.511Z,100924
2017-08-22T09:57:25.661Z,100920
2017-08-22T09:58:27.584Z,100922
2017-08-22T09:59:25.703Z,100914
2017-08-22T10:00:25.713Z,100922
2017-08-22T10:01:27.430Z,100922
2017-08-22T10:02:25.749Z,100923
2017-08-22T10:03:27.405Z,100920
2017-08-22T10:04:26.745Z,100915
2017-08-22T10:05:26.931Z,100912
2017-08-22T10:06:28.218Z,100914
2017-08-22T10:07:27.955Z,100920
2017-08-22T10:08:26.133Z,100916
2017-08-22T10:09:28.091Z,100918
2017-08-22T10:10:27.866Z,100922
2017-08-22T10:11:26.349Z,100920
2017-08-22T10:12:26.432Z,100920
2017-08-22T10:13:28.018Z,100921
2017-08-22T10:14:26.515Z,100917
2017-08-22T10:15:28.171Z,100914
2017-08-22T10:16:27.659Z,100918
2017-08-22T10:17:28.275Z,100912
2017-08-22T10:18:27.743Z,100917
2017-08-22T10:19:28.968Z,100912
2017-08-22T10:20:26.775Z,100921
2017-08-22T10:21:26.854Z,100918
2017-08-22T10:22:26.946Z,100918
2017-08-22T10:23:26.950Z,100919
2017-08-22T10:24:26.977Z,100914
2017-08-22T10:25:27.095Z,100918
2017-08-22T10:26:27.097Z,100921
2017-08-22T10:27:28.325Z,100921
2017-08-22T10:28:27.333Z,100920
2017-08-22T10:29:28.955Z,100923
2017-08-22T10:30:29.564Z,100921
2017-08-22T10:31:28.568Z,100916
2017-08-22T10:32:27.576Z,100918
2017-08-22T10:33:28.202Z,100917
2017-08-22T10:34:28.647Z,100910
2017-08-22T10:35:29.302Z,100912
2017-08-22T10:36:29.412Z,100912
2017-08-22T10:37:28.272Z,100907
2017-08-22T10:38:29.416Z,100911
2017-08-22T10:39:27.779Z,100912
2017-08-22T10:40:27.871Z,100912
2017-08-22T10:41:29.003Z,100908
2017-08-22T10:42:29.747Z,100911
2017-08-22T10:43:27.972Z,100908
2017-08-22T10:44:28.932Z,100907
2017-08-22T10:45:29.067Z,100907
2017-08-22T10:46:28.124Z,100907
2017-08-22T10:47:28.094Z,100903
2017-08-22T10:48:29.844Z,100907
2017-08-22T10:49:30.004Z,100902
2017-08-22T10:50:28.273Z,100908
2017-08-22T10:51:30.133Z,100903
2017-08-22T10:52:28.332Z,100905
2017-08-22T10:53:28.523Z,100901
2017-08-22T10:54:28.427Z,100904
2017-08-22T10:55:28.568Z,100902
2017-08-22T10:56:28.577Z,100903
2017-08-22T10:57:30.236Z,100893
2017-08-22T10:58:28.717Z,100900
2017-08-22T10:59:28.689Z,100902
2017-08-22T11:00:28.637Z,100901
2017-08-22T11:01:29.732Z,100899
2017-08-22T11:02:29.679Z,100897
2017-08-22T11:03:28.906Z,100895
2017-08-22T11:04:31.312Z,100896
2017-08-22T11:05:28.917Z,100894
2017-08-22T11:06:28.937Z,100895
2017-08-22T11:07:30.529Z,100895
2017-08-22T11:08:29.097Z,100897
2017-08-22T11:09:29.046Z,100894
2017-08-22T11:10:30.098Z,100895
2017-08-22T11:11:29.291Z,100891
2017-08-22T11:12:29.421Z,100893
2017-08-22T11:13:29.325Z,100891
2017-08-22T11:14:29.454Z,100890
2017-08-22T11:15:30.626Z,100888
2017-08-22T11:16:29.526Z,100888
2017-08-22T11:17:30.604Z,100883
2017-08-22T11:18:29.697Z,100886
2017-08-22T11:19:30.579Z,100887
2017-08-22T11:20:29.625Z,100883
2017-08-22T11:21:29.674Z,100881
2017-08-22T11:22:29.814Z,100881
2017-08-22T11:23:29.873Z,100883
2017-08-22T11:24:31.549Z,100884
2017-08-22T11:25:31.597Z,100886
2017-08-22T11:26:29.873Z,100882
2017-08-22T11:27:32.324Z,100882
2017-08-22T11:28:29.998Z,100882
2017-08-22T11:29:31.040Z,100883
2017-08-22T11:30:31.795Z,100887
2017-08-22T11:31:31.791Z,100878
2017-08-22T11:32:30.779Z,100877
2017-08-22T11:33:32.644Z,100879
2017-08-22T11:34:30.217Z,100878
2017-08-22T11:35:30.387Z,100881
2017-08-22T11:36:33.327Z,100872
2017-08-22T11:37:31.255Z,100881
2017-08-22T11:38:30.569Z,100881
2017-08-22T11:39:30.575Z,100877
2017-08-22T11:40:32.247Z,100880
2017-08-22T11:41:30.581Z,100879
2017-08-22T11:42:30.680Z,100883
2017-08-22T11:43:30.694Z,100882
2017-08-22T11:44:32.642Z,100880
2017-08-22T11:45:31.715Z,100878
2017-08-22T11:46:32.604Z,100880
2017-08-22T11:47:30.884Z,100875
2017-08-22T11:48:30.851Z,100878
2017-08-22T11:49:30.859Z,100876
2017-08-22T11:50:33.299Z,100878
2017-08-22T11:51:32.133Z,100880
2017-08-22T11:52:31.823Z,100878
2017-08-22T11:53:32.185Z,100871
2017-08-22T11:54:31.350Z,100873
2017-08-22T11:55:32.371Z,100876
2017-08-22T11:56:32.199Z,100876
2017-08-22T11:57:33.100Z,100872
2017-08-22T11:58:32.540Z,100872
2017-08-22T11:59:32.475Z,100868
2017-08-22T12:00:33.405Z,100867
2017-08-22T12:01:32.680Z,100865
2017-08-22T12:02:31.695Z,100863
2017-08-22T12:03:31.729Z,100864
2017-08-22T12:04:33.480Z,100859
2017-08-22T12:05:32.691Z,100859
2017-08-22T12:06:32.053Z,100862
2017-08-22T12:07:32.120Z,100856
2017-08-22T12:08:33.733Z,100861
2017-08-22T12:09:33.794Z,100862
2017-08-22T12:10:32.126Z,100859
2017-08-22T12:11:33.612Z,100861
2017-08-22T12:12:32.850Z,100857
2017-08-22T12:13:32.362Z,100857
2017-08-22T12:14:33.426Z,100857
2017-08-22T12:15:34.152Z,100851
2017-08-22T12:16:32.486Z,100850
2017-08-22T12:17:32.391Z,100851
2017-08-22T12:18:34.611Z,100839
2017-08-22T12:19:33.090Z,100844
2017-08-22T12:20:33.848Z,100841
2017-08-22T12:21:35.249Z,100838
2017-08-22T12:22:34.374Z,100843
2017-08-22T12:23:32.884Z,100840
2017-08-22T12:24:32.924Z,100840
2017-08-22T12:25:32.955Z,100840
2017-08-22T12:26:32.911Z,100841
2017-08-22T12:27:32.953Z,100837
2017-08-22T12:28:32.958Z,100839
2017-08-22T12:29:33.146Z,100835
2017-08-22T12:30:33.737Z,100837